sensor_id;sensor_type;location;lat;lon;timestamp;pressure;altitude;pressure_sealevel;temperature;humidity
53270;BME280;39159;45.634;9.420;2023-02-18T00:02:02;100105.41;;;6.80;100.00
53270;BME280;39159;45.634;9.420;2023-02-18T00:04:27;100094.31;;;6.81;100.00
53270;BME280;39159;45.634;9.420;2023-02-18T00:06:53;100099.47;;;6.83;100.00
53270;BME280;39159;45.634;9.420;2023-02-18T00:09:18;100096.97;;;6.76;100.00
53270;BME280;39159;45.634;9.420;2023-02-18T00:11:43;100100.69;;;6.70;100.00
53270;BME280;39159;45.634;9.420;2023-02-18T00:14:13;100087.94;;;6.71;100.00
53270;BME280;39159;45.634;9.420;2023-02-18T00:16:39;100084.47;;;6.75;100.00
53270;BME280;39159;45.634;9.420;2023-02-18T00:19:07;100088.50;;;6.73;100.00
53270;BME280;39159;45.634;9.420;2023-02-18T00:21:35;100085.47;;;6.69;100.00
53270;BME280;39159;45.634;9.420;2023-02-18T00:24:02;100090.09;;;6.69;100.00
53270;BME280;39159;45.634;9.420;2023-02-18T00:26:27;100090.09;;;6.69;100.00
53270;BME280;39159;45.634;9.420;2023-02-18T00:28:53;100085.78;;;6.73;100.00
53270;BME280;39159;45.634;9.420;2023-02-18T00:31:26;100083.66;;;6.75;100.00
53270;BME280;39159;45.634;9.420;2023-02-18T00:33:52;100079.84;;;6.76;100.00
53270;BME280;39159;45.634;9.420;2023-02-18T00:36:19;100086.03;;;6.71;100.00
53270;BME280;39159;45.634;9.420;2023-02-18T00:38:56;100077.91;;;6.71;100.00
53270;BME280;39159;45.634;9.420;2023-02-18T00:41:24;100073.00;;;6.68;100.00
53270;BME280;39159;45.634;9.420;2023-02-18T00:43:50;100073.25;;;6.67;100.00
53270;BME280;39159;45.634;9.420;2023-02-18T00:46:15;100067.56;;;6.68;100.00
53270;BME280;39159;45.634;9.420;2023-02-18T00:48:41;100075.13;;;6.66;100.00
53270;BME280;39159;45.634;9.420;2023-02-18T00:51:06;100067.53;;;6.63;100.00
53270;BME280;39159;45.634;9.420;2023-02-18T00:53:33;100067.53;;;6.63;100.00
53270;BME280;39159;45.634;9.420;2023-02-18T00:55:58;100063.47;;;6.66;100.00
53270;BME280;39159;45.634;9.420;2023-02-18T00:58:24;100059.44;;;6.68;100.00
53270;BME280;39159;45.634;9.420;2023-02-18T01:00:50;100062.97;;;6.69;100.00
53270;BME280;39159;45.634;9.420;2023-02-18T01:03:16;100059.44;;;6.68;100.00
53270;BME280;39159;45.634;9.420;2023-02-18T01:05:41;100067.56;;;6.68;100.00
53270;BME280;39159;45.634;9.420;2023-02-18T01:08:08;100070.53;;;6.67;100.00
53270;BME280;39159;45.634;9.420;2023-02-18T01:10:35;100073.75;;;6.63;100.00
53270;BME280;39159;45.634;9.420;2023-02-18T01:13:01;100071.50;;;6.55;100.00
53270;BME280;39159;45.634;9.420;2023-02-18T01:15:29;100059.78;;;6.50;100.00
53270;BME280;39159;45.634;9.420;2023-02-18T01:17:54;100073.34;;;6.50;100.00
53270;BME280;39159;45.634;9.420;2023-02-18T01:20:20;100064.06;;;6.46;100.00
53270;BME280;39159;45.634;9.420;2023-02-18T01:22:46;100062.34;;;6.39;100.00
53270;BME280;39159;45.634;9.420;2023-02-18T01:25:11;100065.63;;;6.41;100.00
53270;BME280;39159;45.634;9.420;2023-02-18T01:27:37;100055.88;;;6.40;100.00
53270;BME280;39159;45.634;9.420;2023-02-18T01:30:04;100069.16;;;6.42;100.00
53270;BME280;39159;45.634;9.420;2023-02-18T01:32:30;100058.88;;;6.44;100.00
53270;BME280;39159;45.634;9.420;2023-02-18T01:34:55;100051.56;;;6.44;100.00
53270;BME280;39159;45.634;9.420;2023-02-18T01:37:20;100049.19;;;6.48;100.00
53270;BME280;39159;45.634;9.420;2023-02-18T01:39:46;100038.91;;;6.50;100.00
53270;BME280;39159;45.634;9.420;2023-02-18T01:42:22;100046.28;;;6.55;100.00
53270;BME280;39159;45.634;9.420;2023-02-18T01:44:48;100041.16;;;6.58;100.00
53270;BME280;39159;45.634;9.420;2023-02-18T01:47:15;100032.75;;;6.60;100.00
53270;BME280;39159;45.634;9.420;2023-02-18T01:49:42;100039.50;;;6.57;100.00
53270;BME280;39159;45.634;9.420;2023-02-18T01:52:30;100040.28;;;6.53;100.00
53270;BME280;39159;45.634;9.420;2023-02-18T01:54:57;100032.66;;;6.50;100.00
53270;BME280;39159;45.634;9.420;2023-02-18T01:57:32;100031.56;;;6.51;100.00
53270;BME280;39159;45.634;9.420;2023-02-18T02:02:29;100039.97;;;6.49;100.00
53270;BME280;39159;45.634;9.420;2023-02-18T02:04:56;100028.28;;;6.49;100.00
53270;BME280;39159;45.634;9.420;2023-02-18T02:07:23;100028.88;;;6.51;100.00
53270;BME280;39159;45.634;9.420;2023-02-18T02:09:51;100030.53;;;6.52;100.00
53270;BME280;39159;45.634;9.420;2023-02-18T02:17:52;100033.03;;;6.58;100.00
53270;BME280;39159;45.634;9.420;2023-02-18T02:20:39;100027.84;;;6.57;100.00
53270;BME280;39159;45.634;9.420;2023-02-18T02:28:34;100029.19;;;6.54;100.00
53270;BME280;39159;45.634;9.420;2023-02-18T02:36:31;100014.81;;;6.54;100.00
53270;BME280;39159;45.634;9.420;2023-02-18T02:39:11;100005.53;;;6.50;100.00
53270;BME280;39159;45.634;9.420;2023-02-18T02:41:45;100003.41;;;6.52;100.00
53270;BME280;39159;45.634;9.420;2023-02-18T02:44:40;100003.41;;;6.52;100.00
53270;BME280;39159;45.634;9.420;2023-02-18T02:47:16;100005.78;;;6.48;100.00
53270;BME280;39159;45.634;9.420;2023-02-18T02:49:48;100002.47;;;6.41;100.00
53270;BME280;39159;45.634;9.420;2023-02-18T02:52:22;100002.91;;;6.33;100.00
53270;BME280;39159;45.634;9.420;2023-02-18T02:54:50;100007.16;;;6.23;100.00
53270;BME280;39159;45.634;9.420;2023-02-18T02:59:45;100004.06;;;6.15;100.00
53270;BME280;39159;45.634;9.420;2023-02-18T03:13:01;100003.63;;;5.84;100.00
53270;BME280;39159;45.634;9.420;2023-02-18T03:17:58;99999.97;;;5.73;100.00
53270;BME280;39159;45.634;9.420;2023-02-18T03:20:30;100000.22;;;5.72;100.00
53270;BME280;39159;45.634;9.420;2023-02-18T03:22:59;100004.56;;;5.73;100.00
53270;BME280;39159;45.634;9.420;2023-02-18T03:25:27;99996.78;;;5.76;100.00
53270;BME280;39159;45.634;9.420;2023-02-18T03:28:16;100001.84;;;5.73;100.00
53270;BME280;39159;45.634;9.420;2023-02-18T03:33:17;100000.19;;;5.50;100.00
53270;BME280;39159;45.634;9.420;2023-02-18T03:35:46;100011.44;;;5.42;100.00
53270;BME280;39159;45.634;9.420;2023-02-18T03:38:37;100020.81;;;5.34;100.00
53270;BME280;39159;45.634;9.420;2023-02-18T03:41:04;100010.63;;;5.24;100.00
53270;BME280;39159;45.634;9.420;2023-02-18T03:43:30;100009.72;;;5.18;100.00
53270;BME280;39159;45.634;9.420;2023-02-18T03:45:56;100014.22;;;5.13;100.00
53270;BME280;39159;45.634;9.420;2023-02-18T03:48:22;100004.16;;;5.08;100.00
53270;BME280;39159;45.634;9.420;2023-02-18T03:50:47;99997.28;;;5.01;100.00
53270;BME280;39159;45.634;9.420;2023-02-18T03:53:13;99997.28;;;5.01;100.00
53270;BME280;39159;45.634;9.420;2023-02-18T03:55:38;99998.09;;;5.01;100.00
53270;BME280;39159;45.634;9.420;2023-02-18T03:58:04;100000.78;;;5.01;100.00
53270;BME280;39159;45.634;9.420;2023-02-18T04:00:29;100001.28;;;4.98;100.00
53270;BME280;39159;45.634;9.420;2023-02-18T04:02:54;100003.66;;;4.94;100.00
53270;BME280;39159;45.634;9.420;2023-02-18T04:05:20;99999.06;;;4.95;100.00
53270;BME280;39159;45.634;9.420;2023-02-18T04:07:45;100007.69;;;4.92;100.00
53270;BME280;39159;45.634;9.420;2023-02-18T04:10:11;100004.97;;;4.92;100.00
53270;BME280;39159;45.634;9.420;2023-02-18T04:12:36;100006.84;;;4.91;100.00
53270;BME280;39159;45.634;9.420;2023-02-18T04:15:02;100010.38;;;4.92;100.00
53270;BME280;39159;45.634;9.420;2023-02-18T04:17:28;99994.16;;;4.92;100.00
53270;BME280;39159;45.634;9.420;2023-02-18T04:19:53;99998.97;;;4.90;100.00
53270;BME280;39159;45.634;9.420;2023-02-18T04:22:18;99991.09;;;4.88;100.00
53270;BME280;39159;45.634;9.420;2023-02-18T04:24:44;100002.25;;;4.92;100.00
53270;BME280;39159;45.634;9.420;2023-02-18T04:27:09;100006.19;;;4.84;100.00
53270;BME280;39159;45.634;9.420;2023-02-18T04:29:35;100008.81;;;4.79;100.00
53270;BME280;39159;45.634;9.420;2023-02-18T04:32:00;100011.16;;;4.75;100.00
53270;BME280;39159;45.634;9.420;2023-02-18T04:34:26;100011.88;;;4.71;100.00
53270;BME280;39159;45.634;9.420;2023-02-18T04:36:51;100006.47;;;4.71;100.00
53270;BME280;39159;45.634;9.420;2023-02-18T04:39:17;100012.16;;;4.69;100.00
53270;BME280;39159;45.634;9.420;2023-02-18T04:41:42;100013.44;;;4.67;100.00
53270;BME280;39159;45.634;9.420;2023-02-18T04:44:07;100010.41;;;4.63;100.00
53270;BME280;39159;45.634;9.420;2023-02-18T04:46:33;100016.28;;;4.60;100.00
53270;BME280;39159;45.634;9.420;2023-02-18T04:48:58;100007.63;;;4.58;100.00
53270;BME280;39159;45.634;9.420;2023-02-18T04:51:24;100004.94;;;4.58;100.00
53270;BME280;39159;45.634;9.420;2023-02-18T04:53:49;99999.25;;;4.60;100.00
53270;BME280;39159;45.634;9.420;2023-02-18T04:56:15;99996.31;;;4.61;100.00
53270;BME280;39159;45.634;9.420;2023-02-18T04:58:40;99997.38;;;4.60;100.00
53270;BME280;39159;45.634;9.420;2023-02-18T05:01:06;99997.38;;;4.60;100.00
53270;BME280;39159;45.634;9.420;2023-02-18T05:03:31;100006.31;;;4.61;100.00
53270;BME280;39159;45.634;9.420;2023-02-18T05:05:57;100012.53;;;4.61;100.00
53270;BME280;39159;45.634;9.420;2023-02-18T05:08:23;100003.84;;;4.59;100.00
53270;BME280;39159;45.634;9.420;2023-02-18T05:10:48;100009.50;;;4.57;100.00
53270;BME280;39159;45.634;9.420;2023-02-18T05:13:14;99997.28;;;4.55;100.00
53270;BME280;39159;45.634;9.420;2023-02-18T05:15:39;99996.47;;;4.54;100.00
53270;BME280;39159;45.634;9.420;2023-02-18T05:18:05;99991.06;;;4.54;100.00
53270;BME280;39159;45.634;9.420;2023-02-18T05:20:31;99991.28;;;4.53;100.00
53270;BME280;39159;45.634;9.420;2023-02-18T05:22:56;99996.84;;;4.46;100.00
53270;BME280;39159;45.634;9.420;2023-02-18T05:25:22;99993.34;;;4.46;100.00
53270;BME280;39159;45.634;9.420;2023-02-18T05:27:47;99992.16;;;4.42;100.00
53270;BME280;39159;45.634;9.420;2023-02-18T05:30:13;99995.09;;;4.40;100.00
53270;BME280;39159;45.634;9.420;2023-02-18T05:32:38;100007.34;;;4.43;100.00
53270;BME280;39159;45.634;9.420;2023-02-18T05:35:04;100002.97;;;4.42;100.00
53270;BME280;39159;45.634;9.420;2023-02-18T05:37:29;99994.19;;;4.34;100.00
53270;BME280;39159;45.634;9.420;2023-02-18T05:39:55;99996.09;;;4.34;100.00
53270;BME280;39159;45.634;9.420;2023-02-18T05:42:20;100006.31;;;4.32;100.00
53270;BME280;39159;45.634;9.420;2023-02-18T05:44:47;100006.78;;;4.29;100.00
53270;BME280;39159;45.634;9.420;2023-02-18T05:47:13;100011.16;;;4.30;100.00
53270;BME280;39159;45.634;9.420;2023-02-18T05:49:39;100011.97;;;4.30;100.00
53270;BME280;39159;45.634;9.420;2023-02-18T05:52:05;100014.06;;;4.28;100.00
53270;BME280;39159;45.634;9.420;2023-02-18T05:54:31;100014.56;;;4.25;100.00
53270;BME280;39159;45.634;9.420;2023-02-18T05:56:57;100015.38;;;4.26;100.00
53270;BME280;39159;45.634;9.420;2023-02-18T05:59:22;100017.00;;;4.27;100.00
53270;BME280;39159;45.634;9.420;2023-02-18T06:01:48;100021.94;;;4.30;100.00
53270;BME280;39159;45.634;9.420;2023-02-18T06:04:14;100022.84;;;4.35;100.00
53270;BME280;39159;45.634;9.420;2023-02-18T06:06:39;100023.22;;;4.39;100.00
53270;BME280;39159;45.634;9.420;2023-02-18T06:09:06;100026.13;;;4.38;100.00
53270;BME280;39159;45.634;9.420;2023-02-18T06:11:32;100026.06;;;4.32;100.00
53270;BME280;39159;45.634;9.420;2023-02-18T06:13:57;100025.69;;;4.29;100.00
53270;BME280;39159;45.634;9.420;2023-02-18T06:16:23;100034.53;;;4.24;100.00
53270;BME280;39159;45.634;9.420;2023-02-18T06:18:49;100037.72;;;4.21;100.00
53270;BME280;39159;45.634;9.420;2023-02-18T06:21:14;100043.63;;;4.18;100.00
53270;BME280;39159;45.634;9.420;2023-02-18T06:23:40;100037.72;;;4.21;100.00
53270;BME280;39159;45.634;9.420;2023-02-18T06:26:05;100038.31;;;4.23;100.00
53270;BME280;39159;45.634;9.420;2023-02-18T06:28:30;100039.94;;;4.24;100.00
53270;BME280;39159;45.634;9.420;2023-02-18T06:30:56;100042.41;;;4.26;100.00
53270;BME280;39159;45.634;9.420;2023-02-18T06:33:21;100045.91;;;4.26;100.00
53270;BME280;39159;45.634;9.420;2023-02-18T06:35:59;100056.72;;;4.26;100.00
53270;BME280;39159;45.634;9.420;2023-02-18T06:38:25;100061.41;;;4.31;100.00
53270;BME280;39159;45.634;9.420;2023-02-18T06:40:51;100061.09;;;4.27;100.00
53270;BME280;39159;45.634;9.420;2023-02-18T06:43:18;100068.72;;;4.30;100.00
53270;BME280;39159;45.634;9.420;2023-02-18T06:45:43;100067.75;;;4.36;100.00
53270;BME280;39159;45.634;9.420;2023-02-18T06:48:10;100068.78;;;4.47;100.00
53270;BME280;39159;45.634;9.420;2023-02-18T06:50:35;100069.69;;;4.53;100.00
53270;BME280;39159;45.634;9.420;2023-02-18T06:53:01;100060.38;;;4.61;100.00
53270;BME280;39159;45.634;9.420;2023-02-18T06:55:26;100064.81;;;4.67;100.00
53270;BME280;39159;45.634;9.420;2023-02-18T06:57:52;100059.97;;;4.69;100.00
53270;BME280;39159;45.634;9.420;2023-02-18T07:00:17;100057.63;;;4.72;100.00
53270;BME280;39159;45.634;9.420;2023-02-18T07:02:43;100069.47;;;4.83;100.00
53270;BME280;39159;45.634;9.420;2023-02-18T07:05:08;100065.06;;;4.94;100.00
53270;BME280;39159;45.634;9.420;2023-02-18T07:07:34;100061.13;;;5.02;100.00
53270;BME280;39159;45.634;9.420;2023-02-18T07:09:59;100072.94;;;5.12;100.00
53270;BME280;39159;45.634;9.420;2023-02-18T07:12:25;100069.50;;;5.17;100.00
53270;BME280;39159;45.634;9.420;2023-02-18T07:14:51;100071.97;;;5.18;100.00
53270;BME280;39159;45.634;9.420;2023-02-18T07:17:16;100075.56;;;5.24;100.00
53270;BME280;39159;45.634;9.420;2023-02-18T07:19:42;100068.44;;;5.35;100.00
53270;BME280;39159;45.634;9.420;2023-02-18T07:22:07;100077.78;;;5.44;100.00
53270;BME280;39159;45.634;9.420;2023-02-18T07:24:32;100070.09;;;5.53;100.00
53270;BME280;39159;45.634;9.420;2023-02-18T07:26:58;100079.69;;;5.60;100.00
53270;BME280;39159;45.634;9.420;2023-02-18T07:29:23;100076.53;;;5.69;100.00
53270;BME280;39159;45.634;9.420;2023-02-18T07:31:49;100069.81;;;5.71;100.00
53270;BME280;39159;45.634;9.420;2023-02-18T07:34:14;100076.38;;;5.75;100.00
53270;BME280;39159;45.634;9.420;2023-02-18T07:36:39;100071.28;;;5.79;100.00
53270;BME280;39159;45.634;9.420;2023-02-18T07:39:05;100065.69;;;5.86;100.00
53270;BME280;39159;45.634;9.420;2023-02-18T07:41:30;100068.84;;;5.94;100.00
53270;BME280;39159;45.634;9.420;2023-02-18T07:43:56;100071.47;;;6.11;100.00
53270;BME280;39159;45.634;9.420;2023-02-18T07:46:21;100070.63;;;6.28;100.00
53270;BME280;39159;45.634;9.420;2023-02-18T07:48:47;100072.41;;;6.39;100.00
53270;BME280;39159;45.634;9.420;2023-02-18T07:51:12;100075.25;;;6.49;100.00
53270;BME280;39159;45.634;9.420;2023-02-18T07:53:38;100074.13;;;6.72;100.00
53270;BME280;39159;45.634;9.420;2023-02-18T07:56:04;100083.00;;;6.90;100.00
53270;BME280;39159;45.634;9.420;2023-02-18T07:58:33;100082.06;;;7.06;100.00
53270;BME280;39159;45.634;9.420;2023-02-18T08:00:59;100077.38;;;7.29;100.00
53270;BME280;39159;45.634;9.420;2023-02-18T08:03:29;100071.72;;;7.35;100.00
53270;BME280;39159;45.634;9.420;2023-02-18T08:05:55;100070.25;;;7.55;100.00
53270;BME280;39159;45.634;9.420;2023-02-18T08:08:24;100071.94;;;7.61;100.00
53270;BME280;39159;45.634;9.420;2023-02-18T08:10:51;100070.94;;;7.72;100.00
53270;BME280;39159;45.634;9.420;2023-02-18T08:13:17;100066.94;;;7.85;100.00
53270;BME280;39159;45.634;9.420;2023-02-18T08:15:43;100071.63;;;8.00;100.00
53270;BME280;39159;45.634;9.420;2023-02-18T08:18:18;100073.63;;;8.09;100.00
53270;BME280;39159;45.634;9.420;2023-02-18T08:20:45;100072.06;;;8.29;100.00
53270;BME280;39159;45.634;9.420;2023-02-18T08:23:12;100083.63;;;8.52;100.00
53270;BME280;39159;45.634;9.420;2023-02-18T08:25:38;100082.88;;;8.77;100.00
53270;BME280;39159;45.634;9.420;2023-02-18T08:28:04;100079.59;;;8.80;100.00
53270;BME280;39159;45.634;9.420;2023-02-18T08:30:29;100084.03;;;8.96;100.00
53270;BME280;39159;45.634;9.420;2023-02-18T08:32:55;100077.75;;;9.06;100.00
53270;BME280;39159;45.634;9.420;2023-02-18T08:35:21;100092.47;;;9.10;99.77
53270;BME280;39159;45.634;9.420;2023-02-18T08:37:46;100079.69;;;9.21;99.69
53270;BME280;39159;45.634;9.420;2023-02-18T08:40:12;100079.97;;;9.29;99.85
53270;BME280;39159;45.634;9.420;2023-02-18T08:42:38;100083.53;;;9.45;98.93
53270;BME280;39159;45.634;9.420;2023-02-18T08:45:05;100081.59;;;9.66;98.01
53270;BME280;39159;45.634;9.420;2023-02-18T08:47:31;100082.94;;;9.89;95.15
53270;BME280;39159;45.634;9.420;2023-02-18T08:49:56;100079.38;;;9.99;94.21
53270;BME280;39159;45.634;9.420;2023-02-18T08:52:22;100078.78;;;10.12;92.71
53270;BME280;39159;45.634;9.420;2023-02-18T08:54:48;100078.75;;;10.28;92.07
53270;BME280;39159;45.634;9.420;2023-02-18T08:57:13;100073.25;;;10.43;91.12
53270;BME280;39159;45.634;9.420;2023-02-18T08:59:39;100069.94;;;10.51;88.47
53270;BME280;39159;45.634;9.420;2023-02-18T09:02:04;100078.41;;;10.45;88.99
53270;BME280;39159;45.634;9.420;2023-02-18T09:04:30;100075.94;;;10.53;86.78
53270;BME280;39159;45.634;9.420;2023-02-18T09:06:55;100080.69;;;10.82;87.40
53270;BME280;39159;45.634;9.420;2023-02-18T09:09:21;100077.00;;;11.07;85.51
53270;BME280;39159;45.634;9.420;2023-02-18T09:11:46;100072.41;;;11.37;84.16
53270;BME280;39159;45.634;9.420;2023-02-18T09:14:12;100077.56;;;11.44;80.63
53270;BME280;39159;45.634;9.420;2023-02-18T09:16:38;100076.94;;;11.52;80.65
53270;BME280;39159;45.634;9.420;2023-02-18T09:19:04;100065.34;;;11.65;78.33
53270;BME280;39159;45.634;9.420;2023-02-18T09:21:30;100064.88;;;11.82;77.71
53270;BME280;39159;45.634;9.420;2023-02-18T09:23:56;100063.28;;;11.81;80.57
53270;BME280;39159;45.634;9.420;2023-02-18T09:26:22;100069.31;;;12.07;77.22
53270;BME280;39159;45.634;9.420;2023-02-18T09:28:49;100057.88;;;12.05;77.72
53270;BME280;39159;45.634;9.420;2023-02-18T09:31:17;100063.13;;;12.20;76.36
53270;BME280;39159;45.634;9.420;2023-02-18T09:33:46;100052.06;;;12.31;76.38
53270;BME280;39159;45.634;9.420;2023-02-18T09:36:13;100058.53;;;12.40;75.66
53270;BME280;39159;45.634;9.420;2023-02-18T09:38:38;100063.97;;;12.64;76.10
53270;BME280;39159;45.634;9.420;2023-02-18T09:44:32;100065.59;;;12.46;75.90
53270;BME280;39159;45.634;9.420;2023-02-18T09:47:12;100060.50;;;12.58;74.99
53270;BME280;39159;45.634;9.420;2023-02-18T09:49:43;100046.13;;;12.67;74.80
53270;BME280;39159;45.634;9.420;2023-02-18T09:52:11;100052.94;;;12.69;75.19
53270;BME280;39159;45.634;9.420;2023-02-18T09:54:38;100041.72;;;12.90;73.39
53270;BME280;39159;45.634;9.420;2023-02-18T09:57:05;100053.41;;;13.33;71.55
53270;BME280;39159;45.634;9.420;2023-02-18T09:59:31;100045.22;;;13.47;70.98
53270;BME280;39159;45.634;9.420;2023-02-18T10:01:57;100045.03;;;13.57;70.10
53270;BME280;39159;45.634;9.420;2023-02-18T10:04:33;100038.13;;;13.60;69.38
53270;BME280;39159;45.634;9.420;2023-02-18T10:07:01;100041.75;;;13.41;69.76
53270;BME280;39159;45.634;9.420;2023-02-18T10:09:34;100044.25;;;13.57;69.93
53270;BME280;39159;45.634;9.420;2023-02-18T10:12:13;100031.75;;;13.64;67.75
53270;BME280;39159;45.634;9.420;2023-02-18T10:14:40;100038.78;;;13.84;67.74
53270;BME280;39159;45.634;9.420;2023-02-18T10:17:06;100036.78;;;13.90;66.92
53270;BME280;39159;45.634;9.420;2023-02-18T10:19:36;100036.38;;;14.24;67.47
53270;BME280;39159;45.634;9.420;2023-02-18T10:22:05;100035.66;;;14.33;65.14
53270;BME280;39159;45.634;9.420;2023-02-18T10:24:37;100027.03;;;14.25;64.30
53270;BME280;39159;45.634;9.420;2023-02-18T10:27:06;100030.88;;;14.24;65.55
53270;BME280;39159;45.634;9.420;2023-02-18T10:29:32;100012.84;;;14.46;64.90
53270;BME280;39159;45.634;9.420;2023-02-18T10:32:23;100013.66;;;14.60;64.23
53270;BME280;39159;45.634;9.420;2023-02-18T10:46:10;99996.59;;;14.36;64.04
53270;BME280;39159;45.634;9.420;2023-02-18T10:51:23;99999.88;;;14.24;65.03
53270;BME280;39159;45.634;9.420;2023-02-18T10:53:52;100005.13;;;14.48;64.67
53270;BME280;39159;45.634;9.420;2023-02-18T10:59:23;99997.34;;;14.78;61.98
53270;BME280;39159;45.634;9.420;2023-02-18T11:02:04;99990.31;;;15.08;62.52
53270;BME280;39159;45.634;9.420;2023-02-18T11:04:40;99985.81;;;15.12;61.13
53270;BME280;39159;45.634;9.420;2023-02-18T11:07:15;99976.41;;;15.36;59.97
53270;BME280;39159;45.634;9.420;2023-02-18T11:09:48;99982.19;;;15.57;59.22
53270;BME280;39159;45.634;9.420;2023-02-18T11:13:00;99980.03;;;15.22;59.88
53270;BME280;39159;45.634;9.420;2023-02-18T11:15:27;99981.53;;;15.28;59.62
53270;BME280;39159;45.634;9.420;2023-02-18T11:17:55;99979.59;;;15.60;58.89
53270;BME280;39159;45.634;9.420;2023-02-18T11:20:31;99966.34;;;15.62;58.56
53270;BME280;39159;45.634;9.420;2023-02-18T11:23:19;99964.06;;;15.55;58.43
53270;BME280;39159;45.634;9.420;2023-02-18T11:26:12;99959.09;;;15.66;58.92
53270;BME280;39159;45.634;9.420;2023-02-18T11:29:04;99954.47;;;15.75;58.44
53270;BME280;39159;45.634;9.420;2023-02-18T11:31:41;99941.56;;;15.93;57.96
53270;BME280;39159;45.634;9.420;2023-02-18T11:34:20;99943.44;;;15.75;58.16
53270;BME280;39159;45.634;9.420;2023-02-18T11:36:47;99948.16;;;15.75;58.55
53270;BME280;39159;45.634;9.420;2023-02-18T11:44:27;99934.78;;;15.60;59.55
53270;BME280;39159;45.634;9.420;2023-02-18T11:47:19;99925.16;;;15.80;59.61
53270;BME280;39159;45.634;9.420;2023-02-18T11:49:59;99924.63;;;15.69;58.84
53270;BME280;39159;45.634;9.420;2023-02-18T11:52:27;99914.38;;;16.09;57.94
53270;BME280;39159;45.634;9.420;2023-02-18T12:00:34;99902.41;;;15.97;57.13
53270;BME280;39159;45.634;9.420;2023-02-18T12:03:03;99907.75;;;16.02;56.98
53270;BME280;39159;45.634;9.420;2023-02-18T12:05:32;99891.03;;;15.89;57.30
53270;BME280;39159;45.634;9.420;2023-02-18T12:08:06;99891.88;;;15.99;56.87
53270;BME280;39159;45.634;9.420;2023-02-18T12:10:42;99887.66;;;15.92;57.52
53270;BME280;39159;45.634;9.420;2023-02-18T12:13:26;99878.94;;;16.08;56.87
53270;BME280;39159;45.634;9.420;2023-02-18T12:34:38;99828.06;;;16.14;57.30
53270;BME280;39159;45.634;9.420;2023-02-18T12:42:50;99826.75;;;16.64;54.52
53270;BME280;39159;45.634;9.420;2023-02-18T12:45:44;99826.25;;;16.53;54.22
53270;BME280;39159;45.634;9.420;2023-02-18T13:13:21;99777.44;;;16.62;53.74
53270;BME280;39159;45.634;9.420;2023-02-18T13:15:57;99775.97;;;16.65;52.84
53270;BME280;39159;45.634;9.420;2023-02-18T13:18:30;99776.31;;;16.72;52.98
53270;BME280;39159;45.634;9.420;2023-02-18T13:21:03;99776.97;;;16.60;54.05
53270;BME280;39159;45.634;9.420;2023-02-18T13:23:45;99760.63;;;16.55;53.33
53270;BME280;39159;45.634;9.420;2023-02-18T13:26:13;99763.47;;;16.67;53.98
53270;BME280;39159;45.634;9.420;2023-02-18T13:37:17;99750.81;;;16.92;52.00
53270;BME280;39159;45.634;9.420;2023-02-18T13:39:54;99747.75;;;16.85;52.62
53270;BME280;39159;45.634;9.420;2023-02-18T13:52:45;99727.78;;;16.32;54.39
53270;BME280;39159;45.634;9.420;2023-02-18T13:55:22;99723.81;;;16.60;54.09
53270;BME280;39159;45.634;9.420;2023-02-18T13:57:53;99719.75;;;16.66;53.80
53270;BME280;39159;45.634;9.420;2023-02-18T14:00:25;99719.47;;;16.50;54.52
53270;BME280;39159;45.634;9.420;2023-02-18T14:03:01;99727.88;;;16.53;53.54
53270;BME280;39159;45.634;9.420;2023-02-18T14:05:42;99717.53;;;16.42;53.54
53270;BME280;39159;45.634;9.420;2023-02-18T14:08:12;99720.72;;;16.61;53.76
53270;BME280;39159;45.634;9.420;2023-02-18T14:10:38;99716.03;;;16.62;53.52
53270;BME280;39159;45.634;9.420;2023-02-18T14:13:23;99719.25;;;16.64;53.56
53270;BME280;39159;45.634;9.420;2023-02-18T14:15:54;99716.22;;;16.48;53.65
53270;BME280;39159;45.634;9.420;2023-02-18T14:18:36;99706.69;;;16.45;54.33
53270;BME280;39159;45.634;9.420;2023-02-18T14:21:21;99707.72;;;16.23;54.40
53270;BME280;39159;45.634;9.420;2023-02-18T14:26:21;99702.03;;;16.28;54.14
53270;BME280;39159;45.634;9.420;2023-02-18T14:31:33;99693.81;;;15.85;57.14
53270;BME280;39159;45.634;9.420;2023-02-18T14:50:47;99690.22;;;15.67;57.39
53270;BME280;39159;45.634;9.420;2023-02-18T14:53:17;99692.81;;;15.54;58.41
53270;BME280;39159;45.634;9.420;2023-02-18T14:55:46;99689.41;;;15.49;58.22
53270;BME280;39159;45.634;9.420;2023-02-18T14:58:40;99695.38;;;15.42;58.98
53270;BME280;39159;45.634;9.420;2023-02-18T15:01:28;99693.59;;;15.29;58.78
53270;BME280;39159;45.634;9.420;2023-02-18T15:03:56;99686.50;;;15.28;58.79
53270;BME280;39159;45.634;9.420;2023-02-18T15:08:57;99682.75;;;15.15;59.93
53270;BME280;39159;45.634;9.420;2023-02-18T15:11:36;99676.59;;;15.18;59.42
53270;BME280;39159;45.634;9.420;2023-02-18T15:14:30;99683.19;;;15.00;60.42
53270;BME280;39159;45.634;9.420;2023-02-18T15:16:54;99684.34;;;15.07;61.25
53270;BME280;39159;45.634;9.420;2023-02-18T15:19:24;99681.25;;;15.09;61.20
53270;BME280;39159;45.634;9.420;2023-02-18T15:21:53;99682.88;;;15.01;60.96
53270;BME280;39159;45.634;9.420;2023-02-18T15:26:52;99679.97;;;15.06;60.59
53270;BME280;39159;45.634;9.420;2023-02-18T15:29:22;99681.88;;;14.97;60.42
53270;BME280;39159;45.634;9.420;2023-02-18T15:31:48;99673.47;;;14.93;60.78
53270;BME280;39159;45.634;9.420;2023-02-18T15:36:52;99669.88;;;14.84;61.66
53270;BME280;39159;45.634;9.420;2023-02-18T15:39:17;99672.25;;;14.68;62.06
53270;BME280;39159;45.634;9.420;2023-02-18T15:41:43;99665.97;;;14.68;62.58
53270;BME280;39159;45.634;9.420;2023-02-18T15:44:19;99672.53;;;14.58;62.90
53270;BME280;39159;45.634;9.420;2023-02-18T15:46:46;99664.28;;;14.58;63.27
53270;BME280;39159;45.634;9.420;2023-02-18T15:49:14;99668.28;;;14.52;63.14